sensor_id;sensor_type;location;lat;lon;timestamp;pressure;altitude;pressure_sealevel;temperature;humidity
3796;BME280;1913;50.660;7.834;2023-04-16T00:00:40;97351.19;;;7.16;100.00
3796;BME280;1913;50.660;7.834;2023-04-16T00:03:06;97346.78;;;7.16;100.00
3796;BME280;1913;50.660;7.834;2023-04-16T00:05:31;97350.00;;;7.18;100.00
3796;BME280;1913;50.660;7.834;2023-04-16T00:07:57;97347.78;;;7.15;100.00
3796;BME280;1913;50.660;7.834;2023-04-16T00:10:22;97347.69;;;7.24;100.00
3796;BME280;1913;50.660;7.834;2023-04-16T00:12:47;97352.09;;;7.23;100.00
3796;BME280;1913;50.660;7.834;2023-04-16T00:15:13;97353.63;;;7.17;100.00
3796;BME280;1913;50.660;7.834;2023-04-16T00:17:38;97351.81;;;7.18;100.00
3796;BME280;1913;50.660;7.834;2023-04-16T00:20:04;97356.16;;;7.26;100.00
3796;BME280;1913;50.660;7.834;2023-04-16T00:22:30;97358.38;;;7.14;100.00
3796;BME280;1913;50.660;7.834;2023-04-16T00:24:56;97354.84;;;7.07;100.00
3796;BME280;1913;50.660;7.834;2023-04-16T00:27:21;97361.94;;;6.98;100.00
3796;BME280;1913;50.660;7.834;2023-04-16T00:29:46;97356.13;;;7.11;100.00
3796;BME280;1913;50.660;7.834;2023-04-16T00:32:12;97356.25;;;6.94;100.00
3796;BME280;1913;50.660;7.834;2023-04-16T00:34:37;97356.31;;;7.09;100.00
3796;BME280;1913;50.660;7.834;2023-04-16T00:37:03;97356.13;;;7.11;100.00
3796;BME280;1913;50.660;7.834;2023-04-16T00:39:28;97350.13;;;6.87;100.00
3796;BME280;1913;50.660;7.834;2023-04-16T00:41:53;97359.06;;;7.08;100.00
3796;BME280;1913;50.660;7.834;2023-04-16T00:44:19;97358.28;;;7.07;100.00
3796;BME280;1913;50.660;7.834;2023-04-16T00:46:45;97357.66;;;7.05;100.00
3796;BME280;1913;50.660;7.834;2023-04-16T00:49:10;97356.72;;;6.98;100.00
3796;BME280;1913;50.660;7.834;2023-04-16T00:51:36;97362.56;;;7.00;100.00
3796;BME280;1913;50.660;7.834;2023-04-16T00:54:02;97362.25;;;7.18;100.00
3796;BME280;1913;50.660;7.834;2023-04-16T00:56:30;97366.84;;;7.01;100.00
3796;BME280;1913;50.660;7.834;2023-04-16T00:58:56;97367.38;;;7.11;100.00
3796;BME280;1913;50.660;7.834;2023-04-16T01:01:21;97369.72;;;7.06;100.00
3796;BME280;1913;50.660;7.834;2023-04-16T01:03:48;97365.31;;;7.07;100.00
3796;BME280;1913;50.660;7.834;2023-04-16T01:06:16;97373.94;;;7.07;100.00
3796;BME280;1913;50.660;7.834;2023-04-16T01:08:42;97369.72;;;7.06;100.00
3796;BME280;1913;50.660;7.834;2023-04-16T01:11:09;97370.41;;;7.00;100.00
3796;BME280;1913;50.660;7.834;2023-04-16T01:13:35;97368.44;;;7.02;100.00
3796;BME280;1913;50.660;7.834;2023-04-16T01:16:09;97382.00;;;7.20;100.00
3796;BME280;1913;50.660;7.834;2023-04-16T01:18:36;97385.44;;;7.21;100.00
3796;BME280;1913;50.660;7.834;2023-04-16T01:21:02;97380.56;;;7.18;100.00
3796;BME280;1913;50.660;7.834;2023-04-16T01:23:28;97375.97;;;7.20;100.00
3796;BME280;1913;50.660;7.834;2023-04-16T01:25:53;97376.22;;;7.10;100.00
3796;BME280;1913;50.660;7.834;2023-04-16T01:28:19;97381.47;;;7.25;100.00
3796;BME280;1913;50.660;7.834;2023-04-16T01:30:45;97379.75;;;7.17;100.00
3796;BME280;1913;50.660;7.834;2023-04-16T01:33:11;97377.81;;;7.11;100.00
3796;BME280;1913;50.660;7.834;2023-04-16T01:35:37;97374.88;;;7.14;100.00
3796;BME280;1913;50.660;7.834;2023-04-16T01:38:04;97382.25;;;7.11;100.00
3796;BME280;1913;50.660;7.834;2023-04-16T01:40:30;97383.44;;;7.08;100.00
3796;BME280;1913;50.660;7.834;2023-04-16T01:42:55;97386.81;;;6.94;100.00
3796;BME280;1913;50.660;7.834;2023-04-16T01:45:20;97391.63;;;7.05;100.00
3796;BME280;1913;50.660;7.834;2023-04-16T01:47:48;97392.53;;;7.12;100.00
3796;BME280;1913;50.660;7.834;2023-04-16T01:50:13;97378.97;;;7.32;100.00
3796;BME280;1913;50.660;7.834;2023-04-16T01:52:39;97385.28;;;7.23;100.00
3796;BME280;1913;50.660;7.834;2023-04-16T01:55:05;97382.44;;;7.09;100.00
3796;BME280;1913;50.660;7.834;2023-04-16T01:57:30;97384.34;;;7.15;100.00
3796;BME280;1913;50.660;7.834;2023-04-16T01:59:57;97385.16;;;7.16;100.00
3796;BME280;1913;50.660;7.834;2023-04-16T02:02:22;97385.78;;;7.18;100.00
3796;BME280;1913;50.660;7.834;2023-04-16T02:04:53;97394.56;;;7.25;100.00
3796;BME280;1913;50.660;7.834;2023-04-16T02:07:19;97393.81;;;7.16;100.00
3796;BME280;1913;50.660;7.834;2023-04-16T02:09:44;97389.63;;;7.30;100.00
3796;BME280;1913;50.660;7.834;2023-04-16T02:12:10;97391.66;;;7.20;100.00
3796;BME280;1913;50.660;7.834;2023-04-16T02:14:36;97384.84;;;7.11;100.00
3796;BME280;1913;50.660;7.834;2023-04-16T02:17:02;97392.28;;;7.22;100.00
3796;BME280;1913;50.660;7.834;2023-04-16T02:19:27;97388.75;;;7.15;100.00
3796;BME280;1913;50.660;7.834;2023-04-16T02:21:53;97396.84;;;7.05;100.00
3796;BME280;1913;50.660;7.834;2023-04-16T02:24:19;97393.75;;;7.02;100.00
3796;BME280;1913;50.660;7.834;2023-04-16T02:26:45;97388.69;;;7.23;100.00
3796;BME280;1913;50.660;7.834;2023-04-16T02:29:10;97395.63;;;7.16;100.00
3796;BME280;1913;50.660;7.834;2023-04-16T02:31:36;97394.72;;;7.01;100.00
3796;BME280;1913;50.660;7.834;2023-04-16T02:34:02;97387.72;;;7.01;100.00
3796;BME280;1913;50.660;7.834;2023-04-16T02:36:28;97387.53;;;7.03;100.00
3796;BME280;1913;50.660;7.834;2023-04-16T02:38:54;97392.84;;;6.94;100.00
3796;BME280;1913;50.660;7.834;2023-04-16T02:41:19;97380.13;;;6.91;100.00
3796;BME280;1913;50.660;7.834;2023-04-16T02:43:45;97392.88;;;7.09;100.00
3796;BME280;1913;50.660;7.834;2023-04-16T02:46:10;97388.13;;;7.13;100.00
3796;BME280;1913;50.660;7.834;2023-04-16T02:48:35;97392.25;;;7.07;100.00
3796;BME280;1913;50.660;7.834;2023-04-16T02:51:01;97388.66;;;7.08;100.00
3796;BME280;1913;50.660;7.834;2023-04-16T02:53:26;97390.75;;;7.13;100.00
3796;BME280;1913;50.660;7.834;2023-04-16T02:55:53;97389.47;;;7.09;100.00
3796;BME280;1913;50.660;7.834;2023-04-16T02:58:20;97387.78;;;7.16;100.00
3796;BME280;1913;50.660;7.834;2023-04-16T03:00:46;97389.13;;;7.12;100.00
3796;BME280;1913;50.660;7.834;2023-04-16T03:03:12;97389.47;;;7.09;100.00
3796;BME280;1913;50.660;7.834;2023-04-16T03:05:37;97396.78;;;7.13;100.00
3796;BME280;1913;50.660;7.834;2023-04-16T03:08:03;97384.09;;;7.25;100.00
3796;BME280;1913;50.660;7.834;2023-04-16T03:10:28;97373.75;;;7.32;100.00
3796;BME280;1913;50.660;7.834;2023-04-16T03:12:54;97381.75;;;7.15;100.00
3796;BME280;1913;50.660;7.834;2023-04-16T03:15:19;97389.84;;;7.20;100.00
3796;BME280;1913;50.660;7.834;2023-04-16T03:17:45;97389.59;;;7.15;100.00
3796;BME280;1913;50.660;7.834;2023-04-16T03:20:10;97391.63;;;7.05;100.00
3796;BME280;1913;50.660;7.834;2023-04-16T03:22:37;97391.78;;;7.04;100.00
3796;BME280;1913;50.660;7.834;2023-04-16T03:25:03;97394.69;;;7.09;100.00
3796;BME280;1913;50.660;7.834;2023-04-16T03:27:29;97396.41;;;6.93;100.00
3796;BME280;1913;50.660;7.834;2023-04-16T03:29:55;97394.56;;;7.02;100.00
3796;BME280;1913;50.660;7.834;2023-04-16T03:32:20;97399.81;;;7.02;100.00
3796;BME280;1913;50.660;7.834;2023-04-16T03:34:46;97397.81;;;7.04;100.00
3796;BME280;1913;50.660;7.834;2023-04-16T03:37:11;97391.63;;;7.05;100.00
3796;BME280;1913;50.660;7.834;2023-04-16T03:39:36;97382.91;;;7.13;100.00
3796;BME280;1913;50.660;7.834;2023-04-16T03:42:02;97394.81;;;7.15;100.00
3796;BME280;1913;50.660;7.834;2023-04-16T03:44:28;97396.25;;;7.18;100.00
3796;BME280;1913;50.660;7.834;2023-04-16T03:46:54;97385.06;;;7.09;100.00
3796;BME280;1913;50.660;7.834;2023-04-16T03:49:19;97390.91;;;7.11;100.00
3796;BME280;1913;50.660;7.834;2023-04-16T03:51:45;97384.69;;;7.12;100.00
3796;BME280;1913;50.660;7.834;2023-04-16T03:54:11;97401.13;;;7.21;100.00
3796;BME280;1913;50.660;7.834;2023-04-16T03:56:36;97396.94;;;7.35;100.00
3796;BME280;1913;50.660;7.834;2023-04-16T03:59:03;97401.13;;;7.21;100.00
3796;BME280;1913;50.660;7.834;2023-04-16T04:01:29;97400.03;;;7.15;100.00
3796;BME280;1913;50.660;7.834;2023-04-16T04:03:54;97407.34;;;7.20;100.00
3796;BME280;1913;50.660;7.834;2023-04-16T04:06:20;97408.97;;;7.21;100.00
3796;BME280;1913;50.660;7.834;2023-04-16T04:08:45;97408.72;;;7.31;100.00
3796;BME280;1913;50.660;7.834;2023-04-16T04:11:11;97410.88;;;7.27;100.00
3796;BME280;1913;50.660;7.834;2023-04-16T04:13:36;97411.56;;;7.21;100.00
3796;BME280;1913;50.660;7.834;2023-04-16T04:16:02;97415.28;;;7.04;100.00
3796;BME280;1913;50.660;7.834;2023-04-16T04:18:28;97419.31;;;7.14;100.00
3796;BME280;1913;50.660;7.834;2023-04-16T04:20:53;97409.13;;;6.96;100.00
3796;BME280;1913;50.660;7.834;2023-04-16T04:23:18;97417.22;;;7.10;100.00
3796;BME280;1913;50.660;7.834;2023-04-16T04:25:44;97417.00;;;7.19;100.00
3796;BME280;1913;50.660;7.834;2023-04-16T04:28:10;97414.03;;;7.23;100.00
3796;BME280;1913;50.660;7.834;2023-04-16T04:30:35;97423.72;;;7.14;100.00
3796;BME280;1913;50.660;7.834;2023-04-16T04:33:00;97422.38;;;7.18;100.00
3796;BME280;1913;50.660;7.834;2023-04-16T04:35:26;97419.63;;;7.11;100.00
3796;BME280;1913;50.660;7.834;2023-04-16T04:37:51;97422.25;;;7.11;100.00
3796;BME280;1913;50.660;7.834;2023-04-16T04:40:17;97420.56;;;7.18;100.00
3796;BME280;1913;50.660;7.834;2023-04-16T04:42:42;97424.56;;;7.29;100.00
3796;BME280;1913;50.660;7.834;2023-04-16T04:45:08;97433.13;;;7.23;100.00
3796;BME280;1913;50.660;7.834;2023-04-16T04:47:34;97438.28;;;7.31;100.00
3796;BME280;1913;50.660;7.834;2023-04-16T04:49:59;97439.31;;;7.22;100.00
3796;BME280;1913;50.660;7.834;2023-04-16T04:52:25;97442.53;;;7.32;100.00
3796;BME280;1913;50.660;7.834;2023-04-16T04:54:51;97444.44;;;7.38;100.00
3796;BME280;1913;50.660;7.834;2023-04-16T04:57:16;97441.22;;;7.36;100.00
3796;BME280;1913;50.660;7.834;2023-04-16T04:59:42;97443.97;;;7.35;100.00
3796;BME280;1913;50.660;7.834;2023-04-16T05:02:07;97450.25;;;7.26;100.00
3796;BME280;1913;50.660;7.834;2023-04-16T05:04:33;97451.38;;;7.08;100.00
3796;BME280;1913;50.660;7.834;2023-04-16T05:06:58;97455.47;;;7.26;100.00
3796;BME280;1913;50.660;7.834;2023-04-16T05:09:24;97455.66;;;7.24;100.00
3796;BME280;1913;50.660;7.834;2023-04-16T05:11:49;97458.06;;;7.34;100.00
3796;BME280;1913;50.660;7.834;2023-04-16T05:14:15;97460.19;;;7.30;100.00
3796;BME280;1913;50.660;7.834;2023-04-16T05:16:41;97465.78;;;7.27;100.00
3796;BME280;1913;50.660;7.834;2023-04-16T05:19:09;97468.72;;;7.24;100.00
3796;BME280;1913;50.660;7.834;2023-04-16T05:21:36;97464.09;;;7.34;100.00
3796;BME280;1913;50.660;7.834;2023-04-16T05:24:02;97458.63;;;7.21;100.00
3796;BME280;1913;50.660;7.834;2023-04-16T05:26:30;97469.53;;;7.25;100.00
3796;BME280;1913;50.660;7.834;2023-04-16T05:28:55;97470.13;;;7.12;100.00
3796;BME280;1913;50.660;7.834;2023-04-16T05:31:21;97467.22;;;7.30;100.00
3796;BME280;1913;50.660;7.834;2023-04-16T05:33:46;97464.19;;;7.18;100.00
3796;BME280;1913;50.660;7.834;2023-04-16T05:36:12;97476.75;;;7.23;100.00
3796;BME280;1913;50.660;7.834;2023-04-16T05:38:37;97482.44;;;7.26;100.00
3796;BME280;1913;50.660;7.834;2023-04-16T05:41:03;97490.75;;;7.30;100.00
3796;BME280;1913;50.660;7.834;2023-04-16T05:43:28;97489.84;;;7.23;100.00
3796;BME280;1913;50.660;7.834;2023-04-16T05:45:53;97489.13;;;7.29;100.00
3796;BME280;1913;50.660;7.834;2023-04-16T05:48:19;97486.47;;;7.37;100.00
3796;BME280;1913;50.660;7.834;2023-04-16T05:50:44;97484.00;;;7.35;100.00
3796;BME280;1913;50.660;7.834;2023-04-16T05:53:10;97495.13;;;7.37;100.00
3796;BME280;1913;50.660;7.834;2023-04-16T05:55:36;97497.66;;;7.46;100.00
3796;BME280;1913;50.660;7.834;2023-04-16T05:58:01;97496.66;;;7.47;100.00
3796;BME280;1913;50.660;7.834;2023-04-16T06:00:29;97492.97;;;7.41;100.00
3796;BME280;1913;50.660;7.834;2023-04-16T06:02:54;97495.41;;;7.42;100.00
3796;BME280;1913;50.660;7.834;2023-04-16T06:05:20;97490.16;;;7.42;100.00
3796;BME280;1913;50.660;7.834;2023-04-16T06:07:46;97496.94;;;7.37;100.00
3796;BME280;1913;50.660;7.834;2023-04-16T06:10:11;97494.25;;;7.45;100.00
3796;BME280;1913;50.660;7.834;2023-04-16T06:12:37;97497.44;;;7.55;100.00
3796;BME280;1913;50.660;7.834;2023-04-16T06:15:02;97507.56;;;7.58;100.00
3796;BME280;1913;50.660;7.834;2023-04-16T06:17:28;97515.34;;;7.43;100.00
3796;BME280;1913;50.660;7.834;2023-04-16T06:19:53;97513.06;;;7.40;100.00
3796;BME280;1913;50.660;7.834;2023-04-16T06:22:19;97499.06;;;7.56;100.00
3796;BME280;1913;50.660;7.834;2023-04-16T06:24:45;97500.41;;;7.52;100.00
3796;BME280;1913;50.660;7.834;2023-04-16T06:27:10;97502.31;;;7.58;100.00
3796;BME280;1913;50.660;7.834;2023-04-16T06:29:36;97503.00;;;7.52;100.00
3796;BME280;1913;50.660;7.834;2023-04-16T06:32:01;97508.91;;;7.54;100.00
3796;BME280;1913;50.660;7.834;2023-04-16T06:34:28;97498.78;;;7.51;100.00
3796;BME280;1913;50.660;7.834;2023-04-16T06:36:54;97504.59;;;7.38;100.00
3796;BME280;1913;50.660;7.834;2023-04-16T06:39:19;97498.81;;;7.66;100.00
3796;BME280;1913;50.660;7.834;2023-04-16T06:41:48;97502.44;;;7.65;100.00
3796;BME280;1913;50.660;7.834;2023-04-16T06:44:13;97493.41;;;7.67;100.00
3796;BME280;1913;50.660;7.834;2023-04-16T06:46:39;97498.41;;;7.77;100.00
3796;BME280;1913;50.660;7.834;2023-04-16T06:49:05;97498.22;;;7.79;100.00
3796;BME280;1913;50.660;7.834;2023-04-16T06:51:31;97499.44;;;7.91;100.00
3796;BME280;1913;50.660;7.834;2023-04-16T06:53:57;97499.84;;;7.80;100.00
3796;BME280;1913;50.660;7.834;2023-04-16T06:56:23;97500.81;;;7.79;100.00
3796;BME280;1913;50.660;7.834;2023-04-16T06:58:49;97502.50;;;7.72;100.00
3796;BME280;1913;50.660;7.834;2023-04-16T07:01:15;97509.69;;;7.55;100.00
3796;BME280;1913;50.660;7.834;2023-04-16T07:03:41;97503.06;;;7.67;100.00
3796;BME280;1913;50.660;7.834;2023-04-16T07:06:06;97500.63;;;7.65;100.00
3796;BME280;1913;50.660;7.834;2023-04-16T07:08:32;97503.16;;;7.74;100.00
3796;BME280;1913;50.660;7.834;2023-04-16T07:10:57;97503.06;;;7.67;100.00
3796;BME280;1913;50.660;7.834;2023-04-16T07:13:23;97508.16;;;7.60;100.00
3796;BME280;1913;50.660;7.834;2023-04-16T07:15:49;97513.19;;;7.85;100.00
3796;BME280;1913;50.660;7.834;2023-04-16T07:18:14;97512.00;;;7.73;100.00
3796;BME280;1913;50.660;7.834;2023-04-16T07:20:40;97516.97;;;7.82;100.00
3796;BME280;1913;50.660;7.834;2023-04-16T07:23:06;97512.84;;;7.88;100.00
3796;BME280;1913;50.660;7.834;2023-04-16T07:25:31;97517.97;;;7.81;100.00
3796;BME280;1913;50.660;7.834;2023-04-16T07:27:57;97515.44;;;7.73;100.00
3796;BME280;1913;50.660;7.834;2023-04-16T07:30:22;97524.31;;;7.87;100.00
3796;BME280;1913;50.660;7.834;2023-04-16T07:32:48;97513.19;;;7.85;100.00
3796;BME280;1913;50.660;7.834;2023-04-16T07:35:13;97519.34;;;7.92;100.00
3796;BME280;1913;50.660;7.834;2023-04-16T07:37:39;97519.59;;;7.82;100.00
3796;BME280;1913;50.660;7.834;2023-04-16T07:40:05;97528.66;;;7.95;100.00
3796;BME280;1913;50.660;7.834;2023-04-16T07:42:31;97527.06;;;7.94;100.00
3796;BME280;1913;50.660;7.834;2023-04-16T07:44:56;97530.16;;;7.89;100.00
3796;BME280;1913;50.660;7.834;2023-04-16T07:47:22;97530.75;;;7.99;100.00
3796;BME280;1913;50.660;7.834;2023-04-16T07:49:48;97538.91;;;8.04;100.00
3796;BME280;1913;50.660;7.834;2023-04-16T07:52:14;97524.66;;;7.84;100.00
3796;BME280;1913;50.660;7.834;2023-04-16T07:54:39;97532.00;;;8.03;100.00
3796;BME280;1913;50.660;7.834;2023-04-16T07:57:05;97527.13;;;8.00;100.00
3796;BME280;1913;50.660;7.834;2023-04-16T07:59:30;97533.69;;;8.19;100.00
3796;BME280;1913;50.660;7.834;2023-04-16T08:01:56;97537.53;;;8.08;100.00
3796;BME280;1913;50.660;7.834;2023-04-16T08:04:25;97540.41;;;7.99;100.00
3796;BME280;1913;50.660;7.834;2023-04-16T08:06:53;97545.97;;;7.96;100.00
3796;BME280;1913;50.660;7.834;2023-04-16T08:09:19;97537.81;;;8.13;100.00
3796;BME280;1913;50.660;7.834;2023-04-16T08:11:46;97552.44;;;8.08;100.00
3796;BME280;1913;50.660;7.834;2023-04-16T08:14:15;97553.88;;;8.10;100.00
3796;BME280;1913;50.660;7.834;2023-04-16T08:16:41;97550.31;;;8.26;100.00
3796;BME280;1913;50.660;7.834;2023-04-16T08:19:07;97557.84;;;8.06;100.00
3796;BME280;1913;50.660;7.834;2023-04-16T08:21:32;97569.69;;;8.55;100.00
3796;BME280;1913;50.660;7.834;2023-04-16T08:23:58;97574.94;;;8.32;100.00
3796;BME280;1913;50.660;7.834;2023-04-16T08:26:23;97576.63;;;8.48;100.00
3796;BME280;1913;50.660;7.834;2023-04-16T08:28:49;97573.97;;;8.33;100.00
3796;BME280;1913;50.660;7.834;2023-04-16T08:31:15;97581.72;;;8.26;100.00
3796;BME280;1913;50.660;7.834;2023-04-16T08:33:40;97578.38;;;8.32;100.00
3796;BME280;1913;50.660;7.834;2023-04-16T08:36:06;97584.06;;;8.36;100.00
3796;BME280;1913;50.660;7.834;2023-04-16T08:38:31;97582.78;;;8.40;100.00
3796;BME280;1913;50.660;7.834;2023-04-16T08:41:02;97591.88;;;8.44;100.00
3796;BME280;1913;50.660;7.834;2023-04-16T08:43:32;97591.88;;;8.44;100.00
3796;BME280;1913;50.660;7.834;2023-04-16T08:46:00;97595.13;;;8.46;100.00
3796;BME280;1913;50.660;7.834;2023-04-16T08:48:28;97592.59;;;8.38;100.00
3796;BME280;1913;50.660;7.834;2023-04-16T08:50:59;97598.00;;;8.36;100.00
3796;BME280;1913;50.660;7.834;2023-04-16T08:53:51;97605.00;;;8.59;100.00
3796;BME280;1913;50.660;7.834;2023-04-16T08:56:19;97609.88;;;8.47;100.00
3796;BME280;1913;50.660;7.834;2023-04-16T08:58:49;97602.00;;;8.47;100.00
3796;BME280;1913;50.660;7.834;2023-04-16T09:01:17;97609.56;;;8.42;100.00
3796;BME280;1913;50.660;7.834;2023-04-16T09:03:45;97610.56;;;8.41;100.00
3796;BME280;1913;50.660;7.834;2023-04-16T09:06:11;97614.31;;;8.47;100.00
3796;BME280;1913;50.660;7.834;2023-04-16T09:08:38;97609.63;;;8.34;100.00
3796;BME280;1913;50.660;7.834;2023-04-16T09:11:03;97619.91;;;8.35;100.00
3796;BME280;1913;50.660;7.834;2023-04-16T09:13:30;97620.63;;;8.52;100.00
3796;BME280;1913;50.660;7.834;2023-04-16T09:15:56;97615.00;;;8.41;100.00
3796;BME280;1913;50.660;7.834;2023-04-16T09:18:22;97621.69;;;8.43;100.00
3796;BME280;1913;50.660;7.834;2023-04-16T09:20:50;97624.34;;;8.35;100.00
3796;BME280;1913;50.660;7.834;2023-04-16T09:23:15;97619.34;;;8.48;100.00
3796;BME280;1913;50.660;7.834;2023-04-16T09:25:41;97624.69;;;8.55;100.00
3796;BME280;1913;50.660;7.834;2023-04-16T09:28:08;97626.09;;;8.43;100.00
3796;BME280;1913;50.660;7.834;2023-04-16T09:30:34;97631.72;;;8.39;100.00
3796;BME280;1913;50.660;7.834;2023-04-16T09:33:18;97635.78;;;8.57;100.00
3796;BME280;1913;50.660;7.834;2023-04-16T09:35:51;97639.06;;;8.59;100.00
3796;BME280;1913;50.660;7.834;2023-04-16T09:38:18;97644.19;;;8.67;100.00
3796;BME280;1913;50.660;7.834;2023-04-16T09:40:44;97641.94;;;8.64;100.00
3796;BME280;1913;50.660;7.834;2023-04-16T09:43:17;97647.69;;;8.82;100.00
3796;BME280;1913;50.660;7.834;2023-04-16T09:45:50;97648.75;;;8.73;100.00
3796;BME280;1913;50.660;7.834;2023-04-16T09:48:29;97645.97;;;8.90;100.00
3796;BME280;1913;50.660;7.834;2023-04-16T09:50:55;97658.66;;;8.78;100.00
3796;BME280;1913;50.660;7.834;2023-04-16T09:53:26;97652.63;;;8.92;100.00
3796;BME280;1913;50.660;7.834;2023-04-16T09:55:58;97651.63;;;8.78;100.00
3796;BME280;1913;50.660;7.834;2023-04-16T09:58:24;97649.28;;;8.83;100.00
3796;BME280;1913;50.660;7.834;2023-04-16T10:01:10;97653.47;;;9.07;100.00
3796;BME280;1913;50.660;7.834;2023-04-16T10:03:37;97649.19;;;9.21;100.00
3796;BME280;1913;50.660;7.834;2023-04-16T10:06:09;97651.38;;;9.32;100.00
3796;BME280;1913;50.660;7.834;2023-04-16T10:08:48;97657.66;;;9.38;100.00
3796;BME280;1913;50.660;7.834;2023-04-16T10:11:17;97662.03;;;9.67;100.00
3796;BME280;1913;50.660;7.834;2023-04-16T10:13:43;97659.13;;;9.41;100.00
3796;BME280;1913;50.660;7.834;2023-04-16T10:16:09;97663.38;;;9.42;100.00
3796;BME280;1913;50.660;7.834;2023-04-16T10:18:40;97666.03;;;9.63;100.00
3796;BME280;1913;50.660;7.834;2023-04-16T10:21:06;97665.94;;;9.71;100.00
3796;BME280;1913;50.660;7.834;2023-04-16T10:23:32;97667.22;;;9.75;100.00
3796;BME280;1913;50.660;7.834;2023-04-16T10:26:00;97663.91;;;10.10;100.00
3796;BME280;1913;50.660;7.834;2023-04-16T10:28:26;97665.50;;;10.04;100.00
3796;BME280;1913;50.660;7.834;2023-04-16T10:30:56;97672.78;;;10.08;100.00
3796;BME280;1913;50.660;7.834;2023-04-16T10:33:30;97672.25;;;10.35;100.00
3796;BME280;1913;50.660;7.834;2023-04-16T10:36:11;97671.94;;;10.44;100.00
3796;BME280;1913;50.660;7.834;2023-04-16T10:38:38;97676.69;;;10.34;100.00
3796;BME280;1913;50.660;7.834;2023-04-16T10:41:05;97675.75;;;10.42;100.00
3796;BME280;1913;50.660;7.834;2023-04-16T10:43:43;97679.94;;;10.15;100.00
3796;BME280;1913;50.660;7.834;2023-04-16T10:46:31;97681.50;;;10.30;100.00
3796;BME280;1913;50.660;7.834;2023-04-16T10:49:02;97683.59;;;10.20;100.00
3796;BME280;1913;50.660;7.834;2023-04-16T10:51:35;97678.81;;;10.45;100.00
3796;BME280;1913;50.660;7.834;2023-04-16T10:56:43;97687.56;;;10.52;100.00
3796;BME280;1913;50.660;7.834;2023-04-16T10:59:09;97683.69;;;10.27;100.00
3796;BME280;1913;50.660;7.834;2023-04-16T11:01:39;97679.34;;;10.19;100.00
3796;BME280;1913;50.660;7.834;2023-04-16T11:12:16;97673.91;;;9.99;100.00
3796;BME280;1913;50.660;7.834;2023-04-16T11:14:47;97681.69;;;10.07;100.00
3796;BME280;1913;50.660;7.834;2023-04-16T11:17:13;97682.06;;;10.04;100.00
3796;BME280;1913;50.660;7.834;2023-04-16T11:19:41;97677.97;;;10.02;100.00
3796;BME280;1913;50.660;7.834;2023-04-16T11:22:06;97682.19;;;10.18;100.00
3796;BME280;1913;50.660;7.834;2023-04-16T11:24:32;97679.75;;;10.38;100.00
3796;BME280;1913;50.660;7.834;2023-04-16T11:26:58;97680.75;;;10.37;100.00
3796;BME280;1913;50.660;7.834;2023-04-16T11:29:23;97683.13;;;10.31;100.00
3796;BME280;1913;50.660;7.834;2023-04-16T11:31:50;97690.97;;;10.46;100.00
3796;BME280;1913;50.660;7.834;2023-04-16T11:34:16;97684.00;;;10.39;100.00
3796;BME280;1913;50.660;7.834;2023-04-16T11:36:47;97687.56;;;10.52;100.00
3796;BME280;1913;50.660;7.834;2023-04-16T11:39:13;97694.31;;;10.62;100.00
3796;BME280;1913;50.660;7.834;2023-04-16T11:41:46;97703.69;;;10.71;100.00
3796;BME280;1913;50.660;7.834;2023-04-16T11:44:30;97697.09;;;10.32;100.00
3796;BME280;1913;50.660;7.834;2023-04-16T11:46:56;97700.91;;;10.29;100.00
3796;BME280;1913;50.660;7.834;2023-04-16T11:49:31;97702.66;;;10.44;100.00
3796;BME280;1913;50.660;7.834;2023-04-16T11:51:57;97706.53;;;10.48;100.00
3796;BME280;1913;50.660;7.834;2023-04-16T11:54:23;97708.34;;;10.47;100.00
3796;BME280;1913;50.660;7.834;2023-04-16T11:56:51;97709.72;;;10.43;100.00
3796;BME280;1913;50.660;7.834;2023-04-16T11:59:19;97699.88;;;10.52;100.00
3796;BME280;1913;50.660;7.834;2023-04-16T12:01:46;97700.88;;;11.00;100.00
3796;BME280;1913;50.660;7.834;2023-04-16T12:04:13;97694.72;;;12.17;100.00
3796;BME280;1913;50.660;7.834;2023-04-16T12:06:40;97699.13;;;13.50;100.00
3796;BME280;1913;50.660;7.834;2023-04-16T12:09:25;97698.66;;;14.74;100.00
3796;BME280;1913;50.660;7.834;2023-04-16T12:11:54;97707.03;;;15.15;100.00
3796;BME280;1913;50.660;7.834;2023-04-16T12:14:19;97699.50;;;14.93;100.00
3796;BME280;1913;50.660;7.834;2023-04-16T12:16:45;97712.44;;;14.51;100.00
3796;BME280;1913;50.660;7.834;2023-04-16T12:19:14;97709.53;;;14.28;100.00
3796;BME280;1913;50.660;7.834;2023-04-16T12:21:40;97708.22;;;13.67;100.00
3796;BME280;1913;50.660;7.834;2023-04-16T12:24:08;97713.94;;;14.02;100.00
3796;BME280;1913;50.660;7.834;2023-04-16T12:26:44;97709.34;;;13.26;100.00
3796;BME280;1913;50.660;7.834;2023-04-16T12:29:17;97707.22;;;14.06;100.00
3796;BME280;1913;50.660;7.834;2023-04-16T12:31:44;97715.69;;;15.03;100.00
3796;BME280;1913;50.660;7.834;2023-04-16T12:34:10;97705.06;;;15.28;100.00
3796;BME280;1913;50.660;7.834;2023-04-16T12:36:36;97721.66;;;16.39;100.00
3796;BME280;1913;50.660;7.834;2023-04-16T12:39:01;97716.47;;;16.74;100.00
3796;BME280;1913;50.660;7.834;2023-04-16T12:41:27;97717.31;;;16.15;100.00
3796;BME280;1913;50.660;7.834;2023-04-16T12:44:16;97713.91;;;15.41;100.00
3796;BME280;1913;50.660;7.834;2023-04-16T12:46:43;97716.56;;;14.97;100.00
3796;BME280;1913;50.660;7.834;2023-04-16T12:49:09;97718.38;;;14.40;100.00
3796;BME280;1913;50.660;7.834;2023-04-16T12:51:37;97716.13;;;14.12;100.00
3796;BME280;1913;50.660;7.834;2023-04-16T12:54:04;97718.91;;;13.79;100.00
3796;BME280;1913;50.660;7.834;2023-04-16T12:56:30;97712.13;;;13.96;100.00
3796;BME280;1913;50.660;7.834;2023-04-16T12:58:55;97711.78;;;13.86;100.00
3796;BME280;1913;50.660;7.834;2023-04-16T13:01:21;97706.13;;;13.76;100.00
3796;BME280;1913;50.660;7.834;2023-04-16T13:03:48;97710.91;;;13.99;100.00
3796;BME280;1913;50.660;7.834;2023-04-16T13:06:14;97706.75;;;14.16;100.00
3796;BME280;1913;50.660;7.834;2023-04-16T13:08:41;97701.59;;;13.89;100.00
3796;BME280;1913;50.660;7.834;2023-04-16T13:11:07;97695.66;;;13.62;100.00
3796;BME280;1913;50.660;7.834;2023-04-16T13:13:33;97696.47;;;13.50;100.00
3796;BME280;1913;50.660;7.834;2023-04-16T13:15:58;97703.81;;;13.41;100.00
3796;BME280;1913;50.660;7.834;2023-04-16T13:18:25;97700.78;;;13.37;100.00
3796;BME280;1913;50.660;7.834;2023-04-16T13:20:52;97700.59;;;13.32;100.00
3796;BME280;1913;50.660;7.834;2023-04-16T13:23:17;97704.88;;;13.00;100.00
3796;BME280;1913;50.660;7.834;2023-04-16T13:25:43;97706.53;;;12.75;100.00
3796;BME280;1913;50.660;7.834;2023-04-16T13:28:08;97707.34;;;12.68;100.00